sensor_id;sensor_type;location;lat;lon;timestamp;pressure;altitude;pressure_sealevel;temperature;humidity
21520;BME280;10921;53.614;9.882;2023-12-07T00:00:00;101526.34;;;3.61;95.93
21520;BME280;10921;53.614;9.882;2023-12-07T00:02:27;101513.03;;;3.46;95.96
21520;BME280;10921;53.614;9.882;2023-12-07T00:04:53;101533.41;;;3.60;96.06
21520;BME280;10921;53.614;9.882;2023-12-07T00:07:20;101515.66;;;3.46;95.91
21520;BME280;10921;53.614;9.882;2023-12-07T00:09:46;101498.44;;;3.39;96.04
21520;BME280;10921;53.614;9.882;2023-12-07T00:12:14;101464.16;;;3.22;95.77
21520;BME280;10921;53.614;9.882;2023-12-07T00:14:40;101519.44;;;3.58;95.74
21520;BME280;10921;53.614;9.882;2023-12-07T00:17:08;101527.38;;;3.58;95.99
21520;BME280;10921;53.614;9.882;2023-12-07T00:19:34;101507.75;;;3.46;96.19
21520;BME280;10921;53.614;9.882;2023-12-07T00:22:01;101452.56;;;3.09;96.16
21520;BME280;10921;53.614;9.882;2023-12-07T00:24:28;101526.94;;;3.50;96.03
21520;BME280;10921;53.614;9.882;2023-12-07T00:26:55;101516.69;;;3.44;96.13
21520;BME280;10921;53.614;9.882;2023-12-07T00:29:22;101539.63;;;3.59;96.10
21520;BME280;10921;53.614;9.882;2023-12-07T00:31:48;101494.59;;;3.29;96.09
21520;BME280;10921;53.614;9.882;2023-12-07T00:34:15;101531.00;;;3.56;96.28
21520;BME280;10921;53.614;9.882;2023-12-07T00:36:45;101546.63;;;3.60;95.99
21520;BME280;10921;53.614;9.882;2023-12-07T00:39:11;101548.41;;;3.60;96.08
21520;BME280;10921;53.614;9.882;2023-12-07T00:41:38;101508.22;;;3.37;96.19
21520;BME280;10921;53.614;9.882;2023-12-07T00:44:05;101546.63;;;3.60;96.17
21520;BME280;10921;53.614;9.882;2023-12-07T00:46:32;101558.03;;;3.61;96.11
21520;BME280;10921;53.614;9.882;2023-12-07T00:48:58;101528.31;;;3.40;95.75
21520;BME280;10921;53.614;9.882;2023-12-07T00:51:25;101545.22;;;3.53;95.89
21520;BME280;10921;53.614;9.882;2023-12-07T00:53:51;101535.78;;;3.49;96.22
21520;BME280;10921;53.614;9.882;2023-12-07T00:56:18;101475.75;;;3.20;95.82
21520;BME280;10921;53.614;9.882;2023-12-07T00:58:44;101548.31;;;3.61;96.18
21520;BME280;10921;53.614;9.882;2023-12-07T01:01:11;101554.47;;;3.62;96.24
21520;BME280;10921;53.614;9.882;2023-12-07T01:03:37;101557.94;;;3.62;96.01
21520;BME280;10921;53.614;9.882;2023-12-07T01:06:07;101551.34;;;3.53;95.97
21520;BME280;10921;53.614;9.882;2023-12-07T01:08:34;101567.56;;;3.63;96.03
21520;BME280;10921;53.614;9.882;2023-12-07T01:11:00;101571.16;;;3.62;96.02
21520;BME280;10921;53.614;9.882;2023-12-07T01:13:27;101581.72;;;3.62;95.97
21520;BME280;10921;53.614;9.882;2023-12-07T01:15:54;101547.50;;;3.43;95.92
21520;BME280;10921;53.614;9.882;2023-12-07T01:18:20;101563.88;;;3.50;96.31
21520;BME280;10921;53.614;9.882;2023-12-07T01:20:47;101577.34;;;3.61;96.30
21520;BME280;10921;53.614;9.882;2023-12-07T01:23:14;101582.63;;;3.61;95.87
21520;BME280;10921;53.614;9.882;2023-12-07T01:25:42;101538.34;;;3.33;95.77
21520;BME280;10921;53.614;9.882;2023-12-07T01:28:08;101571.59;;;3.53;96.21
21520;BME280;10921;53.614;9.882;2023-12-07T01:30:35;101543.44;;;3.36;96.18
21520;BME280;10921;53.614;9.882;2023-12-07T01:33:03;101589.69;;;3.61;95.96
21520;BME280;10921;53.614;9.882;2023-12-07T01:35:30;101584.78;;;3.53;96.35
21520;BME280;10921;53.614;9.882;2023-12-07T01:37:56;101591.47;;;3.60;96.30
21520;BME280;10921;53.614;9.882;2023-12-07T01:40:23;101587.34;;;3.54;96.14
21520;BME280;10921;53.614;9.882;2023-12-07T01:42:51;101596.84;;;3.59;96.37
21520;BME280;10921;53.614;9.882;2023-12-07T01:45:19;101579.06;;;3.45;96.00
21520;BME280;10921;53.614;9.882;2023-12-07T01:47:46;101588.22;;;3.55;96.24
21520;BME280;10921;53.614;9.882;2023-12-07T01:50:14;101576.28;;;3.48;96.13
21520;BME280;10921;53.614;9.882;2023-12-07T01:52:45;101574.72;;;3.44;96.46
21520;BME280;10921;53.614;9.882;2023-12-07T01:55:14;101569.59;;;3.41;96.44
21520;BME280;10921;53.614;9.882;2023-12-07T01:57:43;101604.59;;;3.62;96.35
21520;BME280;10921;53.614;9.882;2023-12-07T02:00:12;101602.81;;;3.62;96.70
21520;BME280;10921;53.614;9.882;2023-12-07T02:02:39;101573.72;;;3.46;96.57
21520;BME280;10921;53.614;9.882;2023-12-07T02:05:06;101577.22;;;3.47;96.44
21520;BME280;10921;53.614;9.882;2023-12-07T02:07:34;101597.63;;;3.61;96.14
21520;BME280;10921;53.614;9.882;2023-12-07T02:10:01;101574.50;;;3.48;96.14
21520;BME280;10921;53.614;9.882;2023-12-07T02:12:27;101603.66;;;3.63;96.54
21520;BME280;10921;53.614;9.882;2023-12-07T02:14:56;101603.66;;;3.63;96.16
21520;BME280;10921;53.614;9.882;2023-12-07T02:17:38;101606.25;;;3.64;97.22
21520;BME280;10921;53.614;9.882;2023-12-07T02:20:29;101608.81;;;3.66;97.20
21520;BME280;10921;53.614;9.882;2023-12-07T02:23:01;101552.31;;;3.35;96.36
21520;BME280;10921;53.614;9.882;2023-12-07T02:28:04;101592.91;;;3.50;96.40
21520;BME280;10921;53.614;9.882;2023-12-07T02:30:31;101622.22;;;3.61;96.14
21520;BME280;10921;53.614;9.882;2023-12-07T02:32:58;101593.81;;;3.49;96.10
21520;BME280;10921;53.614;9.882;2023-12-07T02:35:25;101615.09;;;3.63;96.39
21520;BME280;10921;53.614;9.882;2023-12-07T02:37:52;101614.16;;;3.64;96.20
21520;BME280;10921;53.614;9.882;2023-12-07T02:40:24;101623.66;;;3.67;96.56
21520;BME280;10921;53.614;9.882;2023-12-07T02:42:56;101593.75;;;3.50;96.83
21520;BME280;10921;53.614;9.882;2023-12-07T02:45:23;101620.28;;;3.65;96.52
21520;BME280;10921;53.614;9.882;2023-12-07T02:47:50;101617.66;;;3.65;96.51
21520;BME280;10921;53.614;9.882;2023-12-07T02:50:17;101578.44;;;3.40;96.52
21520;BME280;10921;53.614;9.882;2023-12-07T02:52:43;101570.59;;;3.38;96.59
21520;BME280;10921;53.614;9.882;2023-12-07T02:55:10;101622.84;;;3.66;96.43
21520;BME280;10921;53.614;9.882;2023-12-07T02:57:37;101591.63;;;3.40;96.42
21520;BME280;10921;53.614;9.882;2023-12-07T03:00:05;101590.69;;;3.41;96.60
21520;BME280;10921;53.614;9.882;2023-12-07T03:02:34;101623.78;;;3.65;96.35
21520;BME280;10921;53.614;9.882;2023-12-07T03:05:01;101609.97;;;3.60;96.31
21520;BME280;10921;53.614;9.882;2023-12-07T03:07:28;101601.56;;;3.52;96.72
21520;BME280;10921;53.614;9.882;2023-12-07T03:09:55;101628.94;;;3.67;96.66
21520;BME280;10921;53.614;9.882;2023-12-07T03:12:21;101615.47;;;3.56;96.57
21520;BME280;10921;53.614;9.882;2023-12-07T03:14:49;101636.78;;;3.68;96.52
21520;BME280;10921;53.614;9.882;2023-12-07T03:17:16;101581.34;;;3.35;96.67
21520;BME280;10921;53.614;9.882;2023-12-07T03:19:43;101597.63;;;3.43;96.66
21520;BME280;10921;53.614;9.882;2023-12-07T03:22:09;101616.53;;;3.51;96.47
21520;BME280;10921;53.614;9.882;2023-12-07T03:24:37;101640.28;;;3.69;96.91
21520;BME280;10921;53.614;9.882;2023-12-07T03:27:04;101603.53;;;3.48;96.63
21520;BME280;10921;53.614;9.882;2023-12-07T03:29:31;101616.31;;;3.56;96.66
21520;BME280;10921;53.614;9.882;2023-12-07T03:31:58;101615.22;;;3.60;96.49
21520;BME280;10921;53.614;9.882;2023-12-07T03:34:25;101628.13;;;3.66;96.61
21520;BME280;10921;53.614;9.882;2023-12-07T03:36:51;101616.78;;;3.64;96.39
21520;BME280;10921;53.614;9.882;2023-12-07T03:39:38;101579.38;;;3.39;96.68
21520;BME280;10921;53.614;9.882;2023-12-07T03:42:05;101594.75;;;3.48;96.40
21520;BME280;10921;53.614;9.882;2023-12-07T03:44:51;101628.88;;;3.68;96.22
21520;BME280;10921;53.614;9.882;2023-12-07T03:47:18;101609.19;;;3.58;96.39
21520;BME280;10921;53.614;9.882;2023-12-07T03:49:44;101589.56;;;3.46;96.57
21520;BME280;10921;53.614;9.882;2023-12-07T03:52:11;101648.69;;;3.77;96.68
21520;BME280;10921;53.614;9.882;2023-12-07T03:54:39;101637.19;;;3.78;96.54
21520;BME280;10921;53.614;9.882;2023-12-07T03:57:05;101615.88;;;3.65;96.16
21520;BME280;10921;53.614;9.882;2023-12-07T03:59:32;101635.50;;;3.77;96.23
21520;BME280;10921;53.614;9.882;2023-12-07T04:01:59;101622.59;;;3.71;96.45
21520;BME280;10921;53.614;9.882;2023-12-07T04:04:25;101612.44;;;3.63;96.07
21520;BME280;10921;53.614;9.882;2023-12-07T04:06:52;101628.88;;;3.68;96.03
21520;BME280;10921;53.614;9.882;2023-12-07T04:09:19;101594.75;;;3.48;96.11
21520;BME280;10921;53.614;9.882;2023-12-07T04:11:45;101640.06;;;3.73;96.15
21520;BME280;10921;53.614;9.882;2023-12-07T04:14:13;101654.91;;;3.76;95.92
21520;BME280;10921;53.614;9.882;2023-12-07T04:16:39;101632.38;;;3.69;96.07
21520;BME280;10921;53.614;9.882;2023-12-07T04:19:06;101623.78;;;3.65;96.10
21520;BME280;10921;53.614;9.882;2023-12-07T04:21:32;101647.34;;;3.85;95.98
21520;BME280;10921;53.614;9.882;2023-12-07T04:23:59;101618.25;;;3.70;96.02
21520;BME280;10921;53.614;9.882;2023-12-07T04:26:26;101609.88;;;3.62;95.99
21520;BME280;10921;53.614;9.882;2023-12-07T04:28:52;101579.38;;;3.39;96.01
21520;BME280;10921;53.614;9.882;2023-12-07T04:31:18;101609.88;;;3.62;95.80
21520;BME280;10921;53.614;9.882;2023-12-07T04:33:45;101645.72;;;3.83;96.16
21520;BME280;10921;53.614;9.882;2023-12-07T04:36:12;101615.94;;;3.64;95.88
21520;BME280;10921;53.614;9.882;2023-12-07T04:38:38;101633.94;;;3.73;96.18
21520;BME280;10921;53.614;9.882;2023-12-07T04:41:05;101658.25;;;3.79;96.42
21520;BME280;10921;53.614;9.882;2023-12-07T04:43:31;101647.69;;;3.79;96.37
21520;BME280;10921;53.614;9.882;2023-12-07T04:45:58;101670.34;;;3.83;96.27
21520;BME280;10921;53.614;9.882;2023-12-07T04:48:24;101670.25;;;3.85;96.02
21520;BME280;10921;53.614;9.882;2023-12-07T04:50:52;101652.56;;;3.70;96.06
21520;BME280;10921;53.614;9.882;2023-12-07T04:53:19;101679.03;;;3.85;96.30
21520;BME280;10921;53.614;9.882;2023-12-07T04:55:46;101678.19;;;3.85;96.09
21520;BME280;10921;53.614;9.882;2023-12-07T04:58:16;101635.50;;;3.60;96.37
21520;BME280;10921;53.614;9.882;2023-12-07T05:00:43;101670.66;;;3.77;96.24
21520;BME280;10921;53.614;9.882;2023-12-07T05:03:09;101674.22;;;3.76;96.22
21520;BME280;10921;53.614;9.882;2023-12-07T05:05:36;101658.63;;;3.72;96.24
21520;BME280;10921;53.614;9.882;2023-12-07T05:08:03;101669.81;;;3.77;96.06
21520;BME280;10921;53.614;9.882;2023-12-07T05:10:29;101635.41;;;3.44;96.43
21520;BME280;10921;53.614;9.882;2023-12-07T05:12:56;101649.47;;;3.62;96.50
21520;BME280;10921;53.614;9.882;2023-12-07T05:15:23;101693.16;;;3.84;96.68
21520;BME280;10921;53.614;9.882;2023-12-07T05:17:51;101688.75;;;3.85;96.76
21520;BME280;10921;53.614;9.882;2023-12-07T05:20:17;101692.22;;;3.85;96.56
21520;BME280;10921;53.614;9.882;2023-12-07T05:22:48;101679.38;;;3.79;96.79
21520;BME280;10921;53.614;9.882;2023-12-07T05:25:15;101671.81;;;3.72;96.78
21520;BME280;10921;53.614;9.882;2023-12-07T05:27:42;101694.81;;;3.87;96.65
21520;BME280;10921;53.614;9.882;2023-12-07T05:30:08;101658.94;;;3.66;96.70
21520;BME280;10921;53.614;9.882;2023-12-07T05:32:35;101658.09;;;3.65;96.72
21520;BME280;10921;53.614;9.882;2023-12-07T05:35:02;101675.09;;;3.77;96.55
21520;BME280;10921;53.614;9.882;2023-12-07T05:37:29;101661.59;;;3.66;96.64
21520;BME280;10921;53.614;9.882;2023-12-07T05:39:55;101687.03;;;3.84;96.43
21520;BME280;10921;53.614;9.882;2023-12-07T05:42:22;101699.94;;;3.90;96.72
21520;BME280;10921;53.614;9.882;2023-12-07T05:44:48;101679.38;;;3.79;96.54
21520;BME280;10921;53.614;9.882;2023-12-07T05:47:15;101677.50;;;3.81;96.85
21520;BME280;10921;53.614;9.882;2023-12-07T05:49:42;101669.81;;;3.77;96.88
21520;BME280;10921;53.614;9.882;2023-12-07T05:52:09;101651.25;;;3.61;96.54
21520;BME280;10921;53.614;9.882;2023-12-07T05:54:36;101689.38;;;3.90;96.87
21520;BME280;10921;53.614;9.882;2023-12-07T05:57:03;101699.84;;;3.92;96.95
21520;BME280;10921;53.614;9.882;2023-12-07T05:59:30;101653.50;;;3.69;96.51
21520;BME280;10921;53.614;9.882;2023-12-07T06:01:56;101683.38;;;3.86;96.55
21520;BME280;10921;53.614;9.882;2023-12-07T06:04:24;101669.59;;;3.81;96.53
21520;BME280;10921;53.614;9.882;2023-12-07T06:06:50;101656.97;;;3.69;96.77
21520;BME280;10921;53.614;9.882;2023-12-07T06:09:17;101643.00;;;3.67;96.73
21520;BME280;10921;53.614;9.882;2023-12-07T06:11:44;101694.44;;;3.95;96.73
21520;BME280;10921;53.614;9.882;2023-12-07T06:14:11;101693.56;;;3.94;96.73
21520;BME280;10921;53.614;9.882;2023-12-07T06:16:37;101686.72;;;3.90;96.76
21520;BME280;10921;53.614;9.882;2023-12-07T06:19:04;101705.84;;;3.95;96.65
21520;BME280;10921;53.614;9.882;2023-12-07T06:21:31;101678.50;;;3.79;96.55
21520;BME280;10921;53.614;9.882;2023-12-07T06:23:59;101663.69;;;3.76;96.69
21520;BME280;10921;53.614;9.882;2023-12-07T06:26:26;101666.47;;;3.73;96.45
21520;BME280;10921;53.614;9.882;2023-12-07T06:28:53;101632.22;;;3.54;96.45
21520;BME280;10921;53.614;9.882;2023-12-07T06:31:19;101711.13;;;3.95;96.77
21520;BME280;10921;53.614;9.882;2023-12-07T06:33:48;101711.19;;;3.94;96.59
21520;BME280;10921;53.614;9.882;2023-12-07T06:36:20;101693.00;;;3.87;97.06
21520;BME280;10921;53.614;9.882;2023-12-07T06:38:47;101712.28;;;3.89;96.65
21520;BME280;10921;53.614;9.882;2023-12-07T06:41:14;101703.56;;;3.87;96.50
21520;BME280;10921;53.614;9.882;2023-12-07T06:43:42;101702.94;;;3.82;96.67
21520;BME280;10921;53.614;9.882;2023-12-07T06:46:11;101714.91;;;3.89;96.50
21520;BME280;10921;53.614;9.882;2023-12-07T06:48:40;101730.47;;;3.96;96.35
21520;BME280;10921;53.614;9.882;2023-12-07T06:51:07;101719.19;;;3.92;96.59
21520;BME280;10921;53.614;9.882;2023-12-07T06:53:36;101730.38;;;3.97;96.75
21520;BME280;10921;53.614;9.882;2023-12-07T06:56:03;101726.91;;;3.97;96.54
21520;BME280;10921;53.614;9.882;2023-12-07T06:58:30;101730.47;;;3.96;96.29
21520;BME280;10921;53.614;9.882;2023-12-07T07:00:56;101694.88;;;3.68;96.39
21520;BME280;10921;53.614;9.882;2023-12-07T07:03:24;101692.16;;;3.70;96.23
21520;BME280;10921;53.614;9.882;2023-12-07T07:05:50;101710.34;;;3.76;96.26
21520;BME280;10921;53.614;9.882;2023-12-07T07:08:18;101707.69;;;3.76;96.63
21520;BME280;10921;53.614;9.882;2023-12-07T07:10:44;101742.81;;;3.95;96.46
21520;BME280;10921;53.614;9.882;2023-12-07T07:13:13;101736.81;;;3.92;96.43
21520;BME280;10921;53.614;9.882;2023-12-07T07:15:43;101742.19;;;3.90;96.50
21520;BME280;10921;53.614;9.882;2023-12-07T07:18:10;101741.97;;;3.95;96.68
21520;BME280;10921;53.614;9.882;2023-12-07T07:20:37;101695.25;;;3.61;96.37
21520;BME280;10921;53.614;9.882;2023-12-07T07:23:04;101742.25;;;3.88;96.74
21520;BME280;10921;53.614;9.882;2023-12-07T07:25:30;101741.97;;;3.95;96.86
21520;BME280;10921;53.614;9.882;2023-12-07T07:27:57;101735.41;;;3.84;96.60
21520;BME280;10921;53.614;9.882;2023-12-07T07:30:23;101727.66;;;3.81;96.91
21520;BME280;10921;53.614;9.882;2023-12-07T07:32:50;101716.31;;;3.79;96.49
21520;BME280;10921;53.614;9.882;2023-12-07T07:35:17;101728.19;;;3.88;96.78
21520;BME280;10921;53.614;9.882;2023-12-07T07:37:44;101724.69;;;3.87;96.42
21520;BME280;10921;53.614;9.882;2023-12-07T07:40:11;101757.31;;;4.04;96.55
21520;BME280;10921;53.614;9.882;2023-12-07T07:42:38;101740.94;;;3.97;96.57
21520;BME280;10921;53.614;9.882;2023-12-07T07:45:07;101755.47;;;4.06;96.91
21520;BME280;10921;53.614;9.882;2023-12-07T07:47:34;101726.25;;;3.92;96.61
21520;BME280;10921;53.614;9.882;2023-12-07T07:50:00;101744.91;;;4.06;96.82
21520;BME280;10921;53.614;9.882;2023-12-07T07:52:33;101761.38;;;4.11;96.53
21520;BME280;10921;53.614;9.882;2023-12-07T07:55:03;101744.28;;;4.01;97.18
21520;BME280;10921;53.614;9.882;2023-12-07T07:57:31;101759.50;;;4.13;96.68
21520;BME280;10921;53.614;9.882;2023-12-07T07:59:58;101765.25;;;4.04;96.48
21520;BME280;10921;53.614;9.882;2023-12-07T08:02:25;101772.53;;;4.16;96.94
21520;BME280;10921;53.614;9.882;2023-12-07T08:04:51;101771.63;;;4.17;96.68
21520;BME280;10921;53.614;9.882;2023-12-07T08:07:18;101748.56;;;4.03;96.65
21520;BME280;10921;53.614;9.882;2023-12-07T08:09:44;101763.78;;;4.15;97.12
21520;BME280;10921;53.614;9.882;2023-12-07T08:12:11;101767.81;;;4.22;97.14
21520;BME280;10921;53.614;9.882;2023-12-07T08:14:38;101777.47;;;4.23;97.11
21520;BME280;10921;53.614;9.882;2023-12-07T08:17:05;101750.63;;;4.14;96.94
21520;BME280;10921;53.614;9.882;2023-12-07T08:19:32;101757.41;;;4.19;97.22
21520;BME280;10921;53.614;9.882;2023-12-07T08:21:58;101772.03;;;4.27;97.35
21520;BME280;10921;53.614;9.882;2023-12-07T08:24:25;101791.03;;;4.33;97.75
21520;BME280;10921;53.614;9.882;2023-12-07T08:26:51;101786.63;;;4.34;97.55
21520;BME280;10921;53.614;9.882;2023-12-07T08:29:18;101776.81;;;4.36;97.59
21520;BME280;10921;53.614;9.882;2023-12-07T08:31:44;101785.44;;;4.39;97.65
21520;BME280;10921;53.614;9.882;2023-12-07T08:34:11;101721.22;;;4.04;97.48
21520;BME280;10921;53.614;9.882;2023-12-07T08:36:38;101784.19;;;4.46;97.63
21520;BME280;10921;53.614;9.882;2023-12-07T08:39:04;101776.97;;;4.50;97.75
21520;BME280;10921;53.614;9.882;2023-12-07T08:41:35;101741.06;;;4.29;97.58
21520;BME280;10921;53.614;9.882;2023-12-07T08:44:05;101773.22;;;4.54;97.75
21520;BME280;10921;53.614;9.882;2023-12-07T08:46:32;101785.44;;;4.56;97.51
21520;BME280;10921;53.614;9.882;2023-12-07T08:48:58;101783.53;;;4.58;97.56
21520;BME280;10921;53.614;9.882;2023-12-07T08:51:25;101781.69;;;4.60;97.64
21520;BME280;10921;53.614;9.882;2023-12-07T08:53:51;101776.38;;;4.60;97.21
21520;BME280;10921;53.614;9.882;2023-12-07T08:56:20;101783.31;;;4.63;97.28
21520;BME280;10921;53.614;9.882;2023-12-07T08:58:47;101772.03;;;4.59;97.51
21520;BME280;10921;53.614;9.882;2023-12-07T09:01:14;101784.00;;;4.67;97.86
21520;BME280;10921;53.614;9.882;2023-12-07T09:03:57;101782.91;;;4.71;97.83
21520;BME280;10921;53.614;9.882;2023-12-07T09:06:24;101785.38;;;4.74;98.02
21520;BME280;10921;53.614;9.882;2023-12-07T09:08:51;101780.00;;;4.75;98.19
21520;BME280;10921;53.614;9.882;2023-12-07T09:11:18;101784.22;;;4.79;98.02
21520;BME280;10921;53.614;9.882;2023-12-07T09:13:44;101785.06;;;4.80;97.94
21520;BME280;10921;53.614;9.882;2023-12-07T09:16:11;101795.66;;;4.80;98.06
21520;BME280;10921;53.614;9.882;2023-12-07T09:18:38;101800.06;;;4.79;98.09
21520;BME280;10921;53.614;9.882;2023-12-07T09:21:05;101798.38;;;4.78;97.78
21520;BME280;10921;53.614;9.882;2023-12-07T09:23:31;101802.09;;;4.74;97.39
21520;BME280;10921;53.614;9.882;2023-12-07T09:25:58;101797.66;;;4.75;97.21
21520;BME280;10921;53.614;9.882;2023-12-07T09:28:24;101777.50;;;4.56;97.12
21520;BME280;10921;53.614;9.882;2023-12-07T09:30:51;101800.41;;;4.73;97.21
21520;BME280;10921;53.614;9.882;2023-12-07T09:33:18;101788.38;;;4.68;97.10
21520;BME280;10921;53.614;9.882;2023-12-07T09:35:47;101796.28;;;4.68;96.69
21520;BME280;10921;53.614;9.882;2023-12-07T09:38:13;101802.59;;;4.65;96.47
21520;BME280;10921;53.614;9.882;2023-12-07T09:40:40;101797.63;;;4.59;96.38
21520;BME280;10921;53.614;9.882;2023-12-07T09:43:07;101746.03;;;4.35;96.33
21520;BME280;10921;53.614;9.882;2023-12-07T09:45:33;101805.00;;;4.70;96.72
21520;BME280;10921;53.614;9.882;2023-12-07T09:48:01;101789.53;;;4.62;96.95
21520;BME280;10921;53.614;9.882;2023-12-07T09:50:29;101780.75;;;4.62;97.04
21520;BME280;10921;53.614;9.882;2023-12-07T09:52:57;101801.09;;;4.77;97.12
21520;BME280;10921;53.614;9.882;2023-12-07T09:55:34;101793.50;;;4.71;96.52
21520;BME280;10921;53.614;9.882;2023-12-07T09:58:04;101791.88;;;4.68;96.28
21520;BME280;10921;53.614;9.882;2023-12-07T10:00:33;101803.41;;;4.83;96.39
21520;BME280;10921;53.614;9.882;2023-12-07T10:03:00;101806.91;;;4.83;96.22
21520;BME280;10921;53.614;9.882;2023-12-07T10:05:27;101810.50;;;4.82;96.21
21520;BME280;10921;53.614;9.882;2023-12-07T10:07:53;101807.84;;;4.82;96.02
21520;BME280;10921;53.614;9.882;2023-12-07T10:10:20;101791.09;;;4.66;95.45
21520;BME280;10921;53.614;9.882;2023-12-07T10:12:59;101776.47;;;4.59;96.26
21520;BME280;10921;53.614;9.882;2023-12-07T10:15:25;101811.59;;;4.78;95.51
21520;BME280;10921;53.614;9.882;2023-12-07T10:17:53;101778.38;;;4.57;95.57
21520;BME280;10921;53.614;9.882;2023-12-07T10:20:21;101808.34;;;4.73;95.79
21520;BME280;10921;53.614;9.882;2023-12-07T10:23:05;101820.38;;;4.79;97.07
21520;BME280;10921;53.614;9.882;2023-12-07T10:25:35;101810.88;;;4.75;96.05
21520;BME280;10921;53.614;9.882;2023-12-07T10:28:02;101822.16;;;4.78;96.05
21520;BME280;10921;53.614;9.882;2023-12-07T10:30:34;101814.16;;;4.80;96.06
21520;BME280;10921;53.614;9.882;2023-12-07T10:33:04;101819.44;;;4.80;96.24
21520;BME280;10921;53.614;9.882;2023-12-07T10:35:31;101781.69;;;4.60;95.93
21520;BME280;10921;53.614;9.882;2023-12-07T10:37:58;101793.72;;;4.66;95.90
21520;BME280;10921;53.614;9.882;2023-12-07T10:40:25;101773.06;;;4.57;95.99
21520;BME280;10921;53.614;9.882;2023-12-07T10:42:56;101814.00;;;4.83;96.76
21520;BME280;10921;53.614;9.882;2023-12-07T10:45:29;101806.84;;;4.85;97.08
21520;BME280;10921;53.614;9.882;2023-12-07T10:48:02;101809.13;;;4.91;97.33
21520;BME280;10921;53.614;9.882;2023-12-07T10:50:34;101781.47;;;4.81;97.16
21520;BME280;10921;53.614;9.882;2023-12-07T10:53:11;101805.16;;;5.00;97.68
21520;BME280;10921;53.614;9.882;2023-12-07T10:55:44;101809.53;;;5.01;96.94
21520;BME280;10921;53.614;9.882;2023-12-07T10:58:13;101790.47;;;4.94;96.55
21520;BME280;10921;53.614;9.882;2023-12-07T11:00:43;101790.22;;;4.99;96.47
21520;BME280;10921;53.614;9.882;2023-12-07T11:03:16;101800.22;;;5.09;96.47
21520;BME280;10921;53.614;9.882;2023-12-07T11:05:46;101806.59;;;5.05;96.10
21520;BME280;10921;53.614;9.882;2023-12-07T11:08:33;101803.72;;;5.10;96.15
21520;BME280;10921;53.614;9.882;2023-12-07T11:11:15;101794.31;;;5.04;96.31
21520;BME280;10921;53.614;9.882;2023-12-07T11:13:53;101758.63;;;4.80;95.69
21520;BME280;10921;53.614;9.882;2023-12-07T11:16:37;101800.38;;;5.06;96.23
21520;BME280;10921;53.614;9.882;2023-12-07T11:19:43;101795.38;;;5.02;96.78
21520;BME280;10921;53.614;9.882;2023-12-07T11:22:11;101794.75;;;4.97;95.55
21520;BME280;10921;53.614;9.882;2023-12-07T11:24:59;101802.94;;;5.08;97.27
21520;BME280;10921;53.614;9.882;2023-12-07T11:27:32;101787.81;;;4.94;96.42
21520;BME280;10921;53.614;9.882;2023-12-07T11:29:59;101798.25;;;4.97;96.01
21520;BME280;10921;53.614;9.882;2023-12-07T11:32:29;101799.09;;;4.98;96.17
21520;BME280;10921;53.614;9.882;2023-12-07T11:35:02;101797.06;;;5.03;96.74
21520;BME280;10921;53.614;9.882;2023-12-07T11:38:03;101801.84;;;5.12;97.65
21520;BME280;10921;53.614;9.882;2023-12-07T11:40:30;101796.03;;;5.21;97.42
21520;BME280;10921;53.614;9.882;2023-12-07T11:43:01;101792.97;;;5.13;96.57
21520;BME280;10921;53.614;9.882;2023-12-07T11:45:41;101794.84;;;5.11;97.19
21520;BME280;10921;53.614;9.882;2023-12-07T11:48:12;101795.72;;;5.11;96.09
21520;BME280;10921;53.614;9.882;2023-12-07T11:55:57;101762.56;;;5.04;96.34
21520;BME280;10921;53.614;9.882;2023-12-07T11:58:29;101764.97;;;5.09;96.69
21520;BME280;10921;53.614;9.882;2023-12-07T12:00:58;101734.41;;;4.87;96.54
21520;BME280;10921;53.614;9.882;2023-12-07T12:03:26;101774.03;;;5.20;96.58
21520;BME280;10921;53.614;9.882;2023-12-07T12:05:53;101775.66;;;5.23;96.81
21520;BME280;10921;53.614;9.882;2023-12-07T12:08:21;101772.94;;;5.24;96.95
21520;BME280;10921;53.614;9.882;2023-12-07T12:10:50;101775.25;;;5.30;97.24
21520;BME280;10921;53.614;9.882;2023-12-07T12:13:18;101760.22;;;5.47;98.38
21520;BME280;10921;53.614;9.882;2023-12-07T12:15:45;101750.91;;;5.40;96.95
21520;BME280;10921;53.614;9.882;2023-12-07T12:18:16;101723.59;;;5.23;97.26
21520;BME280;10921;53.614;9.882;2023-12-07T12:20:45;101753.97;;;5.48;97.25
21520;BME280;10921;53.614;9.882;2023-12-07T12:23:11;101738.34;;;5.43;97.16
21520;BME280;10921;53.614;9.882;2023-12-07T12:25:38;101737.25;;;5.47;97.03
21520;BME280;10921;53.614;9.882;2023-12-07T12:28:07;101746.19;;;5.60;97.20
21520;BME280;10921;53.614;9.882;2023-12-07T12:30:34;101737.47;;;5.58;97.13
21520;BME280;10921;53.614;9.882;2023-12-07T12:33:01;101741.28;;;5.69;96.96
21520;BME280;10921;53.614;9.882;2023-12-07T12:35:28;101748.13;;;5.73;96.98
21520;BME280;10921;53.614;9.882;2023-12-07T12:37:55;101754.97;;;5.77;97.24
21520;BME280;10921;53.614;9.882;2023-12-07T12:40:23;101737.94;;;5.81;97.00
21520;BME280;10921;53.614;9.882;2023-12-07T12:42:51;101739.94;;;5.77;96.71
21520;BME280;10921;53.614;9.882;2023-12-07T12:45:22;101734.25;;;5.83;96.65
21520;BME280;10921;53.614;9.882;2023-12-07T12:47:49;101737.59;;;5.87;96.12
21520;BME280;10921;53.614;9.882;2023-12-07T12:50:35;101728.56;;;5.91;97.39
21520;BME280;10921;53.614;9.882;2023-12-07T12:53:04;101660.41;;;5.49;95.97
21520;BME280;10921;53.614;9.882;2023-12-07T12:55:39;101731.34;;;5.88;96.75
21520;BME280;10921;53.614;9.882;2023-12-07T12:58:09;101731.44;;;5.86;96.02
21520;BME280;10921;53.614;9.882;2023-12-07T13:00:39;101720.44;;;5.78;95.76
21520;BME280;10921;53.614;9.882;2023-12-07T13:03:07;101733.50;;;5.81;94.76
21520;BME280;10921;53.614;9.882;2023-12-07T13:05:34;101736.25;;;5.80;94.72
21520;BME280;10921;53.614;9.882;2023-12-07T13:08:01;101736.44;;;5.77;94.51
21520;BME280;10921;53.614;9.882;2023-12-07T13:10:40;101735.66;;;5.75;94.33
21520;BME280;10921;53.614;9.882;2023-12-07T13:13:07;101731.56;;;5.69;94.54